createdAt,value
2018-05-02T00:00:04.253Z,0.937
2018-05-02T00:01:04.949Z,0.937
2018-05-02T00:02:03.947Z,0.937
2018-05-02T00:03:03.520Z,0.875
2018-05-02T00:04:04.295Z,0.875
2018-05-02T00:05:04.065Z,1
2018-05-02T00:06:03.777Z,1
2018-05-02T00:07:03.931Z,0.937
2018-05-02T00:08:03.697Z,0.937
2018-05-02T00:09:04.478Z,0.937
2018-05-02T00:10:04.286Z,0.812
2018-05-02T00:11:04.051Z,0.812
2018-05-02T00:12:03.711Z,0.75
2018-05-02T00:13:03.574Z,0.812
2018-05-02T00:14:03.854Z,0.75
2018-05-02T00:15:03.745Z,0.812
2018-05-02T00:16:05.158Z,0.812
2018-05-02T00:17:04.195Z,0.812
2018-05-02T00:18:04.180Z,0.812
2018-05-02T00:19:04.094Z,0.75
2018-05-02T00:20:04.143Z,0.75
2018-05-02T00:21:04.061Z,0.625
2018-05-02T00:22:04.190Z,0.625
2018-05-02T00:23:03.978Z,0.625
2018-05-02T00:24:03.724Z,0.625
2018-05-02T00:25:03.444Z,0.625
2018-05-02T00:26:04.000Z,0.625
2018-05-02T00:27:04.300Z,0.625
2018-05-02T00:28:03.643Z,0.625
2018-05-02T00:29:03.566Z,0.625
2018-05-02T00:30:04.028Z,0.625
2018-05-02T00:31:04.713Z,0.625
2018-05-02T00:32:04.327Z,0.562
2018-05-02T00:33:04.175Z,0.562
2018-05-02T00:34:04.075Z,0.562
2018-05-02T00:35:03.652Z,0.562
2018-05-02T00:36:03.845Z,0.562
2018-05-02T00:37:04.046Z,0.562
2018-05-02T00:38:03.826Z,0.562
2018-05-02T00:39:04.118Z,0.5
2018-05-02T00:40:03.866Z,0.5
2018-05-02T00:41:04.042Z,0.5
2018-05-02T00:42:03.565Z,0.437
2018-05-02T00:43:03.500Z,0.375
2018-05-02T00:44:04.160Z,0.375
2018-05-02T00:45:04.169Z,0.375
2018-05-02T00:46:03.668Z,0.375
2018-05-02T00:47:04.323Z,0.437
2018-05-02T00:48:04.138Z,0.437
2018-05-02T00:49:03.709Z,0.437
2018-05-02T00:50:03.483Z,0.437
2018-05-02T00:51:04.359Z,0.5
2018-05-02T00:52:04.136Z,0.437
2018-05-02T00:53:03.590Z,0.437
2018-05-02T00:54:04.428Z,0.437
2018-05-02T00:55:04.450Z,0.437
2018-05-02T00:56:04.755Z,0.437
2018-05-02T00:57:03.815Z,0.437
2018-05-02T00:58:04.243Z,0.375
2018-05-02T00:59:03.964Z,0.312
2018-05-02T01:00:04.127Z,0.25
2018-05-02T01:01:04.191Z,0.25
2018-05-02T01:02:03.834Z,0.25
2018-05-02T01:03:03.528Z,0.25
2018-05-02T01:04:03.666Z,0.25
2018-05-02T01:05:03.617Z,0.187
2018-05-02T01:06:04.771Z,0.125
2018-05-02T01:07:03.552Z,0.125
2018-05-02T01:08:04.477Z,0.125
2018-05-02T01:09:03.958Z,0.062
2018-05-02T01:10:03.846Z,0
2018-05-02T01:11:03.938Z,0
2018-05-02T01:12:03.639Z,0
2018-05-02T01:13:04.225Z,0
2018-05-02T01:14:03.945Z,0.062
2018-05-02T01:15:04.238Z,0.062
2018-05-02T01:16:03.546Z,0.125
2018-05-02T01:17:05.095Z,0.125
2018-05-02T01:18:03.941Z,0.125
2018-05-02T01:19:03.634Z,0.125
2018-05-02T01:20:04.298Z,0.125
2018-05-02T01:21:03.921Z,0.187
2018-05-02T01:22:04.223Z,0.125
2018-05-02T01:23:03.608Z,0
2018-05-02T01:24:03.953Z,-0.062
2018-05-02T01:25:03.952Z,-0.062
2018-05-02T01:26:04.448Z,-0.062
2018-05-02T01:27:04.117Z,-0.125
2018-05-02T01:28:03.795Z,-0.125
2018-05-02T01:29:03.416Z,-0.125
2018-05-02T01:30:04.422Z,-0.125
2018-05-02T01:31:04.279Z,-0.187
2018-05-02T01:32:03.985Z,-0.125
2018-05-02T01:33:03.863Z,-0.125
2018-05-02T01:34:03.773Z,-0.062
2018-05-02T01:35:03.941Z,-0.125
2018-05-02T01:36:04.262Z,-0.187
2018-05-02T01:37:04.000Z,-0.187
2018-05-02T01:38:05.203Z,-0.187
2018-05-02T01:39:04.461Z,-0.187
2018-05-02T01:40:04.464Z,-0.187
2018-05-02T01:41:04.129Z,-0.187
2018-05-02T01:42:03.891Z,-0.187
2018-05-02T01:43:03.532Z,-0.25
2018-05-02T01:44:04.410Z,-0.312
2018-05-02T01:45:03.934Z,-0.312
2018-05-02T01:46:03.897Z,-0.312
2018-05-02T01:47:03.420Z,-0.375
2018-05-02T01:48:04.023Z,-0.375
2018-05-02T01:49:04.145Z,-0.437
2018-05-02T01:50:03.936Z,-0.437
2018-05-02T01:51:03.966Z,-0.437
2018-05-02T01:52:03.811Z,-0.375
2018-05-02T01:53:04.402Z,-0.375
2018-05-02T01:54:03.888Z,-0.375
2018-05-02T01:55:03.589Z,-0.312
2018-05-02T01:56:03.544Z,-0.312
2018-05-02T01:57:03.803Z,-0.312
2018-05-02T01:58:03.635Z,-0.375
2018-05-02T01:59:03.586Z,-0.437
2018-05-02T02:00:04.758Z,-0.437
2018-05-02T02:01:03.438Z,-0.437
2018-05-02T02:02:04.318Z,-0.5
2018-05-02T02:03:04.265Z,-0.5
2018-05-02T02:04:03.877Z,-0.562
2018-05-02T02:05:03.678Z,-0.562
2018-05-02T02:06:04.444Z,-0.625
2018-05-02T02:07:03.761Z,-0.625
2018-05-02T02:08:03.549Z,-0.687
2018-05-02T02:09:04.341Z,-0.625
2018-05-02T02:10:04.183Z,-0.375
2018-05-02T02:11:04.506Z,-0.25
2018-05-02T02:12:04.543Z,-0.312
2018-05-02T02:13:04.272Z,-0.375
2018-05-02T02:14:03.511Z,-0.312
2018-05-02T02:15:03.779Z,-0.312
2018-05-02T02:16:04.279Z,-0.375
2018-05-02T02:17:04.213Z,-0.375
2018-05-02T02:18:04.118Z,-0.437
2018-05-02T02:19:03.648Z,-0.5
2018-05-02T02:20:03.592Z,-0.562
2018-05-02T02:21:04.336Z,-0.625
2018-05-02T02:22:04.138Z,-0.75
2018-05-02T02:23:03.677Z,-0.75
2018-05-02T02:24:03.902Z,-0.687
2018-05-02T02:25:03.624Z,-0.687
2018-05-02T02:26:04.927Z,-0.687
2018-05-02T02:27:03.617Z,-0.687
2018-05-02T02:28:03.548Z,-0.75
2018-05-02T02:29:04.053Z,-0.75
2018-05-02T02:30:04.188Z,-0.75
2018-05-02T02:31:03.821Z,-0.75
2018-05-02T02:32:03.628Z,-0.687
2018-05-02T02:33:03.508Z,-0.625
2018-05-02T02:34:04.154Z,-0.562
2018-05-02T02:35:03.864Z,-0.625
2018-05-02T02:36:04.382Z,-0.687
2018-05-02T02:37:04.154Z,-0.687
2018-05-02T02:38:03.873Z,-0.687
2018-05-02T02:39:04.180Z,-0.75
2018-05-02T02:40:03.528Z,-0.75
2018-05-02T02:41:04.077Z,-0.875
2018-05-02T02:42:03.796Z,-0.875
2018-05-02T02:43:03.463Z,-0.875
2018-05-02T02:44:04.208Z,-0.875
2018-05-02T02:45:04.068Z,-0.875
2018-05-02T02:46:03.703Z,-0.875
2018-05-02T02:47:04.395Z,-0.812
2018-05-02T02:48:04.033Z,-0.875
2018-05-02T02:49:03.951Z,-0.875
2018-05-02T02:50:04.089Z,-0.875
2018-05-02T02:51:04.847Z,-0.812
2018-05-02T02:52:03.626Z,-0.875
2018-05-02T02:53:03.599Z,-0.812
2018-05-02T02:54:03.498Z,-0.812
2018-05-02T02:55:04.192Z,-0.812
2018-05-02T02:56:03.796Z,-0.812
2018-05-02T02:57:03.948Z,-0.812
2018-05-02T02:58:03.803Z,-0.875
2018-05-02T02:59:03.561Z,-0.937
2018-05-02T03:00:03.547Z,-0.875
2018-05-02T03:01:04.419Z,-0.875
2018-05-02T03:02:04.707Z,-0.875
2018-05-02T03:03:03.447Z,-0.875
2018-05-02T03:04:03.930Z,-0.937
2018-05-02T03:05:03.814Z,-0.937
2018-05-02T03:06:03.449Z,-0.937
2018-05-02T03:07:04.446Z,-0.937
2018-05-02T03:08:04.230Z,-0.937
2018-05-02T03:09:04.317Z,-0.875
2018-05-02T03:10:03.938Z,-0.875
2018-05-02T03:11:03.856Z,-0.937
2018-05-02T03:12:03.499Z,-0.937
2018-05-02T03:13:04.364Z,-0.937
2018-05-02T03:14:03.933Z,-0.937
2018-05-02T03:15:03.760Z,-0.875
2018-05-02T03:16:03.535Z,-0.875
2018-05-02T03:17:04.294Z,-0.875
2018-05-02T03:18:03.729Z,-0.875
2018-05-02T03:19:03.562Z,-0.875
2018-05-02T03:20:04.370Z,-0.937
2018-05-02T03:21:03.922Z,-0.937
2018-05-02T03:22:03.766Z,-0.937
2018-05-02T03:23:03.439Z,-1
2018-05-02T03:24:04.200Z,-1
2018-05-02T03:25:03.928Z,-0.937
2018-05-02T03:26:04.844Z,-1
2018-05-02T03:27:04.747Z,-0.937
2018-05-02T03:28:04.204Z,-0.937
2018-05-02T03:29:04.100Z,-0.937
2018-05-02T03:30:03.896Z,-0.937
2018-05-02T03:31:03.813Z,-0.937
2018-05-02T03:32:03.511Z,-0.937
2018-05-02T03:33:04.119Z,-0.875
2018-05-02T03:34:04.349Z,-0.812
2018-05-02T03:35:03.847Z,-0.812
2018-05-02T03:36:03.608Z,-0.875
2018-05-02T03:37:04.140Z,-0.875
2018-05-02T03:38:03.854Z,-0.812
2018-05-02T03:39:03.906Z,-0.875
2018-05-02T03:40:03.779Z,-0.875
2018-05-02T03:41:03.603Z,-0.812
2018-05-02T03:42:04.044Z,-0.75
2018-05-02T03:43:03.778Z,-0.75
2018-05-02T03:44:04.019Z,-0.687
2018-05-02T03:45:03.947Z,-0.625
2018-05-02T03:46:03.501Z,-0.562
2018-05-02T03:47:04.213Z,-0.5
2018-05-02T03:48:03.943Z,-0.437
2018-05-02T03:49:03.651Z,-0.375
2018-05-02T03:50:04.199Z,-0.312
2018-05-02T03:51:03.917Z,-0.25
2018-05-02T03:52:03.695Z,-0.25
2018-05-02T03:53:03.829Z,-0.187
2018-05-02T03:54:03.492Z,0
2018-05-02T03:55:03.448Z,0.187
2018-05-02T03:56:04.220Z,0.312
2018-05-02T03:57:04.119Z,0.437
2018-05-02T03:58:03.930Z,0.625
2018-05-02T03:59:03.677Z,0.812
2018-05-02T04:00:03.876Z,1
2018-05-02T04:01:04.764Z,1.25
2018-05-02T04:02:03.468Z,1.5
2018-05-02T04:03:04.185Z,1.687
2018-05-02T04:04:05.031Z,1.875
2018-05-02T04:05:03.626Z,2
2018-05-02T04:06:04.109Z,2.187
2018-05-02T04:07:03.758Z,2.25
2018-05-02T04:08:03.457Z,2.312
2018-05-02T04:09:04.239Z,2.437
2018-05-02T04:10:03.940Z,2.5
2018-05-02T04:11:04.607Z,2.687
2018-05-02T04:12:04.289Z,2.75
2018-05-02T04:13:03.492Z,2.75
2018-05-02T04:14:04.131Z,2.812
2018-05-02T04:15:03.910Z,2.875
2018-05-02T04:16:03.327Z,3
2018-05-02T04:17:03.555Z,3.062
2018-05-02T04:18:04.120Z,3.125
2018-05-02T04:19:03.875Z,3.125
2018-05-02T04:20:04.262Z,3.187
2018-05-02T04:21:03.888Z,3.25
2018-05-02T04:22:03.694Z,3.437
2018-05-02T04:23:04.298Z,3.687
2018-05-02T04:24:04.203Z,3.937
2018-05-02T04:25:06.619Z,4.25
2018-05-02T04:26:04.500Z,4.25
2018-05-02T04:27:04.233Z,4.375
2018-05-02T04:28:03.992Z,4.375
2018-05-02T04:29:03.779Z,4.437
2018-05-02T04:30:04.922Z,4.437
2018-05-02T04:31:03.500Z,4.375
2018-05-02T04:32:03.635Z,4.5
2018-05-02T04:33:03.405Z,4.75
2018-05-02T04:34:04.365Z,5.062
2018-05-02T04:35:03.610Z,5.375
2018-05-02T04:36:04.310Z,5.687
2018-05-02T04:37:04.080Z,5.812
2018-05-02T04:38:03.818Z,6
2018-05-02T04:39:04.788Z,6.125
2018-05-02T04:40:03.740Z,6.25
2018-05-02T04:41:03.545Z,6.375
2018-05-02T04:42:03.651Z,6.437
2018-05-02T04:43:03.477Z,6.437
2018-05-02T04:44:03.544Z,6.5
2018-05-02T04:45:04.080Z,6.687
2018-05-02T04:46:04.628Z,6.875
2018-05-02T04:47:04.088Z,7.062
2018-05-02T04:48:03.811Z,7.25
2018-05-02T04:49:03.613Z,7.5
2018-05-02T04:50:03.593Z,7.625
2018-05-02T04:51:04.330Z,7.75
2018-05-02T04:52:03.998Z,7.812
2018-05-02T04:53:03.645Z,8.062
2018-05-02T04:54:03.916Z,8.375
2018-05-02T04:55:03.580Z,8.687
2018-05-02T04:56:04.243Z,9.25
2018-05-02T04:57:03.863Z,9.875
2018-05-02T04:58:03.681Z,10.437
2018-05-02T04:59:03.412Z,10.875
2018-05-02T05:00:04.323Z,11.375
2018-05-02T05:01:03.741Z,11.812
2018-05-02T05:02:04.318Z,12.312
2018-05-02T05:03:04.008Z,12.5
2018-05-02T05:04:03.573Z,12.687
2018-05-02T05:05:04.371Z,12.937
2018-05-02T05:06:04.026Z,13.312
2018-05-02T05:07:03.686Z,13.5
2018-05-02T05:08:03.392Z,13.687
2018-05-02T05:09:04.474Z,14
2018-05-02T05:10:04.224Z,14.062
2018-05-02T05:11:04.165Z,14.187
2018-05-02T05:12:03.833Z,14.187
2018-05-02T05:13:03.590Z,14.437
2018-05-02T05:14:04.348Z,14.812
2018-05-02T05:15:04.227Z,15.187
2018-05-02T05:16:03.835Z,15.375
2018-05-02T05:17:03.542Z,15.062
2018-05-02T05:18:04.420Z,14.437
2018-05-02T05:19:04.123Z,14.187
2018-05-02T05:20:03.685Z,14
2018-05-02T05:21:05.562Z,13.75
2018-05-02T05:22:03.640Z,13.625
2018-05-02T05:23:03.579Z,13.5
2018-05-02T05:24:04.337Z,13.562
2018-05-02T05:25:04.213Z,13.625
2018-05-02T05:26:04.931Z,13.625
2018-05-02T05:27:03.586Z,13.562
2018-05-02T05:28:03.921Z,13.5
2018-05-02T05:29:03.713Z,13.312
2018-05-02T05:30:04.414Z,13.125
2018-05-02T05:31:04.395Z,13.062
2018-05-02T05:32:03.956Z,13
2018-05-02T05:33:04.317Z,12.875
2018-05-02T05:34:04.389Z,12.812
2018-05-02T05:35:04.033Z,12.625
2018-05-02T05:36:03.660Z,12.5
2018-05-02T05:37:03.754Z,12.312
2018-05-02T05:38:03.837Z,12.312
2018-05-02T05:39:04.518Z,12.187
2018-05-02T05:40:04.484Z,12.062
2018-05-02T05:41:04.399Z,12
2018-05-02T05:42:03.927Z,12
2018-05-02T05:43:04.136Z,12.062
2018-05-02T05:44:03.844Z,12.062
2018-05-02T05:45:03.711Z,12.125
2018-05-02T05:46:04.184Z,12.125
2018-05-02T05:47:03.971Z,12.25
2018-05-02T05:48:03.979Z,12.187
2018-05-02T05:49:03.957Z,12.187
2018-05-02T05:50:03.826Z,12.25
2018-05-02T05:51:04.016Z,12.187
2018-05-02T05:52:03.460Z,12.25
2018-05-02T05:53:04.088Z,12.375
2018-05-02T05:54:04.036Z,12.5
2018-05-02T05:55:03.712Z,12.562
2018-05-02T05:56:03.596Z,12.562
2018-05-02T05:57:03.602Z,12.75
2018-05-02T05:58:03.463Z,12.75
2018-05-02T05:59:04.231Z,12.75
2018-05-02T06:00:04.316Z,12.875
2018-05-02T06:01:04.061Z,13
2018-05-02T06:02:04.014Z,13.187
2018-05-02T06:03:03.857Z,13.375
2018-05-02T06:04:03.562Z,13.437
2018-05-02T06:05:03.627Z,13.562
2018-05-02T06:06:04.629Z,13.625
2018-05-02T06:07:04.729Z,13.75
2018-05-02T06:08:04.332Z,13.75
2018-05-02T06:09:04.092Z,13.937
2018-05-02T06:10:03.886Z,14.125
2018-05-02T06:11:03.577Z,14.312
2018-05-02T06:12:03.963Z,14.687
2018-05-02T06:13:03.606Z,14.75
2018-05-02T06:14:05.328Z,14.875
2018-05-02T06:15:04.122Z,14.937
2018-05-02T06:16:03.853Z,14.812
2018-05-02T06:17:03.604Z,14.812
2018-05-02T06:18:04.175Z,15
2018-05-02T06:19:03.835Z,15.25
2018-05-02T06:20:04.344Z,15.375
2018-05-02T06:21:04.223Z,15.562
2018-05-02T06:22:03.909Z,15.562
2018-05-02T06:23:03.356Z,15.687
2018-05-02T06:24:04.094Z,15.812
2018-05-02T06:25:03.830Z,16
2018-05-02T06:26:03.925Z,16
2018-05-02T06:27:03.460Z,16.312
2018-05-02T06:28:03.565Z,16.437
2018-05-02T06:29:04.218Z,16.5
2018-05-02T06:30:04.509Z,16.625
2018-05-02T06:31:04.088Z,16.687
2018-05-02T06:32:03.711Z,16.687
2018-05-02T06:33:03.997Z,16.625
2018-05-02T06:34:03.898Z,16.625
2018-05-02T06:35:04.335Z,16.562
2018-05-02T06:36:04.224Z,16.875
2018-05-02T06:37:04.031Z,16.937
2018-05-02T06:38:03.777Z,16.812
2018-05-02T06:39:03.589Z,16.937
2018-05-02T06:40:04.070Z,16.875
2018-05-02T06:41:03.636Z,16.937
2018-05-02T06:42:03.456Z,17.062
2018-05-02T06:43:04.110Z,17.375
2018-05-02T06:44:03.839Z,17.437
2018-05-02T06:45:03.931Z,17.437
2018-05-02T06:46:03.727Z,17.5
2018-05-02T06:47:04.249Z,17.625
2018-05-02T06:48:03.803Z,17.687
2018-05-02T06:49:04.160Z,17.625
2018-05-02T06:50:03.965Z,17.625
2018-05-02T06:51:03.691Z,17.687
2018-05-02T06:52:03.754Z,17.75
2018-05-02T06:53:04.156Z,18
2018-05-02T06:54:03.660Z,18.187
2018-05-02T06:55:04.389Z,17.937
2018-05-02T06:56:04.231Z,17.812
2018-05-02T06:57:03.660Z,18.125
2018-05-02T06:58:04.278Z,18.312
2018-05-02T06:59:03.893Z,18.562
2018-05-02T07:00:03.940Z,18.562
2018-05-02T07:01:03.875Z,18.562
2018-05-02T07:02:03.555Z,18.5
2018-05-02T07:03:05.249Z,18.687
2018-05-02T07:04:03.908Z,18.875
2018-05-02T07:05:03.937Z,19
2018-05-02T07:06:03.486Z,19.062
2018-05-02T07:07:04.422Z,19.437
2018-05-02T07:08:04.156Z,19.562
2018-05-02T07:09:04.169Z,19.75
2018-05-02T07:10:04.229Z,19.937
2018-05-02T07:11:04.512Z,20.312
2018-05-02T07:12:04.047Z,20.375
2018-05-02T07:13:03.927Z,20.625
2018-05-02T07:14:03.856Z,20.187
2018-05-02T07:15:03.896Z,19.625
2018-05-02T07:16:03.302Z,19.5
2018-05-02T07:17:04.157Z,19.812
2018-05-02T07:18:04.117Z,19.75
2018-05-02T07:19:03.897Z,20.062
2018-05-02T07:20:03.951Z,20.312
2018-05-02T07:21:04.329Z,20.437
2018-05-02T07:22:03.791Z,20.125
2018-05-02T07:23:03.508Z,20.187
2018-05-02T07:24:03.909Z,20.187
2018-05-02T07:25:03.680Z,20
2018-05-02T07:26:04.756Z,20
2018-05-02T07:27:03.615Z,20.437
2018-05-02T07:28:04.258Z,20.812
2018-05-02T07:29:03.970Z,20.75
2018-05-02T07:30:04.254Z,20.687
2018-05-02T07:31:03.659Z,20.312
2018-05-02T07:32:04.292Z,20.187
2018-05-02T07:33:04.142Z,20.187
2018-05-02T07:34:03.802Z,20.312
2018-05-02T07:35:03.553Z,20.437
2018-05-02T07:36:04.299Z,20.375
2018-05-02T07:37:04.030Z,20.562
2018-05-02T07:38:03.772Z,20.687
2018-05-02T07:39:04.492Z,20.687
2018-05-02T07:40:04.455Z,20.75
2018-05-02T07:41:03.422Z,20.312
2018-05-02T07:42:04.136Z,20.5
2018-05-02T07:43:03.674Z,20.687
2018-05-02T07:44:03.502Z,20.625
2018-05-02T07:45:04.273Z,20.437
2018-05-02T07:46:04.129Z,20.312
2018-05-02T07:47:03.842Z,20.562
2018-05-02T07:48:03.540Z,20.312
2018-05-02T07:49:03.873Z,20.812
2018-05-02T07:50:04.263Z,20.812
2018-05-02T07:51:03.680Z,21.25
2018-05-02T07:52:03.449Z,21.625
2018-05-02T07:53:03.616Z,21.812
2018-05-02T07:54:03.589Z,21.937
2018-05-02T07:55:04.458Z,22
2018-05-02T07:56:04.085Z,21.75
2018-05-02T07:57:03.928Z,21.562
2018-05-02T07:58:04.062Z,21.687
2018-05-02T07:59:03.911Z,21.5
2018-05-02T08:00:04.124Z,21.812
2018-05-02T08:01:05.227Z,22.125
2018-05-02T08:02:03.790Z,22.312
2018-05-02T08:03:03.839Z,22.062
2018-05-02T08:04:03.940Z,22.25
2018-05-02T08:05:04.109Z,22.312
2018-05-02T08:06:03.595Z,22.5
2018-05-02T08:07:03.513Z,22.75
2018-05-02T08:08:04.123Z,23.187
2018-05-02T08:09:04.042Z,23.25
2018-05-02T08:10:03.823Z,23.375
2018-05-02T08:11:03.802Z,23
2018-05-02T08:12:03.602Z,23.062
2018-05-02T08:13:04.472Z,22.687
2018-05-02T08:14:04.059Z,22.562
2018-05-02T08:15:03.932Z,22.625
2018-05-02T08:16:03.717Z,22.687
2018-05-02T08:17:03.725Z,22.5
2018-05-02T08:18:03.962Z,22.562
2018-05-02T08:19:03.751Z,22.312
2018-05-02T08:20:03.722Z,22.187
2018-05-02T08:21:04.196Z,22.375
2018-05-02T08:22:03.976Z,22.187
2018-05-02T08:23:03.820Z,22.687
2018-05-02T08:24:03.531Z,22.312
2018-05-02T08:25:04.359Z,22.312
2018-05-02T08:26:05.190Z,22.875
2018-05-02T08:27:03.640Z,23.375
2018-05-02T08:28:04.431Z,23.687
2018-05-02T08:29:04.172Z,24
2018-05-02T08:30:04.172Z,24.062
2018-05-02T08:31:03.645Z,23.875
2018-05-02T08:32:03.743Z,24.125
2018-05-02T08:33:03.380Z,24.375
2018-05-02T08:34:04.111Z,24.5
2018-05-02T08:35:03.958Z,24.562
2018-05-02T08:36:04.116Z,25.062
2018-05-02T08:37:03.624Z,25.187
2018-05-02T08:38:03.850Z,25.25
2018-05-02T08:39:04.142Z,25.062
2018-05-02T08:40:03.700Z,24.562
2018-05-02T08:41:03.597Z,23.937
2018-05-02T08:42:04.204Z,23.312
2018-05-02T08:43:04.139Z,23.125
2018-05-02T08:44:03.453Z,22.937
2018-05-02T08:45:04.150Z,22.312
2018-05-02T08:46:04.061Z,22.375
2018-05-02T08:47:03.628Z,22.625
2018-05-02T08:48:04.226Z,22.937
2018-05-02T08:49:04.148Z,23.312
2018-05-02T08:50:04.219Z,23.062
2018-05-02T08:51:04.582Z,22.687
2018-05-02T08:52:04.213Z,22.187
2018-05-02T08:53:04.250Z,22.562
2018-05-02T08:54:04.117Z,22.562
2018-05-02T08:55:03.621Z,22.375
2018-05-02T08:56:03.398Z,21.812
2018-05-02T08:57:03.340Z,21.562
2018-05-02T08:58:04.124Z,21.625
2018-05-02T08:59:03.991Z,21.812
2018-05-02T09:00:03.961Z,22.25
2018-05-02T09:01:04.272Z,22.625
2018-05-02T09:02:03.893Z,22.687
2018-05-02T09:03:03.640Z,22.312
2018-05-02T09:04:04.371Z,22.25
2018-05-02T09:05:04.023Z,22.5
2018-05-02T09:06:03.739Z,22.312
2018-05-02T09:07:03.393Z,22.062
2018-05-02T09:08:04.191Z,22.125
2018-05-02T09:09:04.358Z,22
2018-05-02T09:10:04.254Z,22.312
2018-05-02T09:11:04.500Z,22.437
2018-05-02T09:12:04.370Z,22.375
2018-05-02T09:13:04.242Z,22.312
2018-05-02T09:14:04.088Z,21.75
2018-05-02T09:15:04.050Z,21.375
2018-05-02T09:16:03.721Z,21.062
2018-05-02T09:17:03.632Z,20.812
2018-05-02T09:18:03.369Z,20.75
2018-05-02T09:19:04.377Z,20.812
2018-05-02T09:20:03.872Z,20.812
2018-05-02T09:21:03.487Z,20.875
2018-05-02T09:22:04.005Z,20.687
2018-05-02T09:23:03.741Z,20.937
2018-05-02T09:24:03.642Z,20.875
2018-05-02T09:25:03.452Z,20.375
2018-05-02T09:26:03.521Z,19.937
2018-05-02T09:27:04.375Z,19.812
2018-05-02T09:28:03.998Z,19.812
2018-05-02T09:29:03.670Z,19.687
2018-05-02T09:30:03.523Z,19.625
2018-05-02T09:31:04.281Z,19.5
2018-05-02T09:32:04.058Z,19.437
2018-05-02T09:33:03.651Z,19.125
2018-05-02T09:34:04.080Z,19.25
2018-05-02T09:35:03.895Z,19.25
2018-05-02T09:36:04.270Z,19.25
2018-05-02T09:37:03.638Z,19.437
2018-05-02T09:38:03.460Z,19.375
2018-05-02T09:39:04.090Z,19.437
2018-05-02T09:40:03.798Z,19.375
2018-05-02T09:41:03.529Z,19.25
2018-05-02T09:42:04.247Z,19.125
2018-05-02T09:43:04.059Z,19.187
2018-05-02T09:44:03.931Z,19.125
2018-05-02T09:45:03.793Z,18.687
2018-05-02T09:46:03.612Z,18.562
2018-05-02T09:47:04.238Z,18.312
2018-05-02T09:48:04.189Z,18.25
2018-05-02T09:49:03.621Z,18.437
2018-05-02T09:50:04.317Z,18.562
2018-05-02T09:51:04.433Z,18.562
2018-05-02T09:52:03.813Z,18.5
2018-05-02T09:53:03.629Z,18.437
2018-05-02T09:54:03.478Z,18.437
2018-05-02T09:55:04.147Z,18.5
2018-05-02T09:56:05.845Z,18.625
2018-05-02T09:57:03.997Z,18.687
2018-05-02T09:58:03.735Z,18.687
2018-05-02T09:59:04.192Z,18.687
2018-05-02T10:00:03.903Z,18.812
2018-05-02T10:01:03.733Z,18.812
2018-05-02T10:02:03.540Z,19.187
2018-05-02T10:03:04.129Z,19.437
2018-05-02T10:04:03.954Z,19.187
2018-05-02T10:05:04.132Z,18.75
2018-05-02T10:06:05.180Z,18.625
2018-05-02T10:07:03.809Z,18.5
2018-05-02T10:08:03.568Z,18.375
2018-05-02T10:09:04.458Z,18.312
2018-05-02T10:10:04.250Z,18.437
2018-05-02T10:11:03.897Z,18.375
2018-05-02T10:12:03.510Z,18.437
2018-05-02T10:13:04.284Z,18.625
2018-05-02T10:14:03.893Z,18.562
2018-05-02T10:15:03.781Z,18.437
2018-05-02T10:16:04.088Z,18.687
2018-05-02T10:17:03.806Z,18.687
2018-05-02T10:18:03.985Z,18.875
2018-05-02T10:19:03.506Z,19.187
2018-05-02T10:20:04.604Z,19.437
2018-05-02T10:21:03.934Z,19.625
2018-05-02T10:22:03.715Z,19.687
2018-05-02T10:23:03.510Z,19.687
2018-05-02T10:24:03.550Z,19.562
2018-05-02T10:25:04.259Z,19.437
2018-05-02T10:26:04.221Z,19.437
2018-05-02T10:27:03.828Z,19.437
2018-05-02T10:28:03.460Z,19.687
2018-05-02T10:29:04.101Z,19.5
2018-05-02T10:30:03.975Z,19.312
2018-05-02T10:31:04.582Z,19.375
2018-05-02T10:32:04.336Z,19.5
2018-05-02T10:33:04.101Z,19.312
2018-05-02T10:34:03.867Z,19
2018-05-02T10:35:03.740Z,19
2018-05-02T10:36:03.616Z,18.937
2018-05-02T10:37:03.593Z,19.062
2018-05-02T10:38:04.297Z,19.437
2018-05-02T10:39:03.976Z,19.625
2018-05-02T10:40:03.703Z,19.75
2018-05-02T10:41:05.422Z,19.875
2018-05-02T10:42:03.859Z,19.812
2018-05-02T10:43:04.007Z,19.937
2018-05-02T10:44:03.983Z,19.875
2018-05-02T10:45:04.280Z,19.937
2018-05-02T10:46:05.066Z,19.812
2018-05-02T10:47:04.039Z,20
2018-05-02T10:48:03.890Z,20.312
2018-05-02T10:49:04.419Z,20.312
2018-05-02T10:50:04.309Z,20.25
2018-05-02T10:51:05.335Z,20.312
2018-05-02T10:52:03.737Z,20.625
2018-05-02T10:53:03.683Z,20.687
2018-05-02T10:54:04.038Z,21
2018-05-02T10:55:04.010Z,21
2018-05-02T10:56:04.625Z,21.062
2018-05-02T10:57:03.599Z,20.75
2018-05-02T10:58:04.464Z,20.687
2018-05-02T10:59:04.205Z,20.875
2018-05-02T11:00:04.666Z,21.062
2018-05-02T11:01:04.394Z,21.25
2018-05-02T11:02:03.754Z,21.125
2018-05-02T11:03:03.700Z,21.25
2018-05-02T11:04:04.397Z,21.187
2018-05-02T11:05:04.186Z,21.25
2018-05-02T11:06:04.015Z,21.312
2018-05-02T11:07:04.143Z,21.562
2018-05-02T11:08:04.013Z,21.625
2018-05-02T11:09:04.684Z,21.5
2018-05-02T11:10:03.642Z,21.437
2018-05-02T11:11:03.777Z,21
2018-05-02T11:12:03.763Z,21.187
2018-05-02T11:13:03.748Z,21.312
2018-05-02T11:14:03.624Z,21.625
2018-05-02T11:15:03.917Z,21.75
2018-05-02T11:16:03.846Z,21.437
2018-05-02T11:17:03.787Z,21.375
2018-05-02T11:18:03.938Z,21.187
2018-05-02T11:19:03.676Z,21.312
2018-05-02T11:20:04.016Z,21.312
2018-05-02T11:21:05.060Z,21.25
2018-05-02T11:22:03.771Z,21.125
2018-05-02T11:23:04.106Z,21.437
2018-05-02T11:24:03.849Z,21.375
2018-05-02T11:25:03.630Z,21.437
2018-05-02T11:26:04.373Z,21.437
2018-05-02T11:27:03.986Z,21.187
2018-05-02T11:28:04.068Z,20.875
2018-05-02T11:29:03.974Z,20.687
2018-05-02T11:30:03.994Z,20.625
2018-05-02T11:31:03.603Z,20.75
2018-05-02T11:32:04.337Z,20.5
2018-05-02T11:33:04.104Z,20.562
2018-05-02T11:34:03.851Z,20.562
2018-05-02T11:35:03.648Z,20.375
2018-05-02T11:36:04.159Z,20.125
2018-05-02T11:37:03.740Z,20.125
2018-05-02T11:38:03.969Z,19.875
2018-05-02T11:39:04.659Z,19.812
2018-05-02T11:40:03.824Z,19.25
2018-05-02T11:41:05.184Z,18.875
2018-05-02T11:42:03.604Z,18.625
2018-05-02T11:43:03.420Z,18.687
2018-05-02T11:44:04.128Z,18.75
2018-05-02T11:45:04.764Z,18.75
2018-05-02T11:46:04.398Z,18.812
2018-05-02T11:47:04.363Z,18.75
2018-05-02T11:48:03.985Z,18.937
2018-05-02T11:49:03.626Z,18.562
2018-05-02T11:50:04.214Z,18.5
2018-05-02T11:51:04.001Z,18.312
2018-05-02T11:52:03.627Z,18.125
2018-05-02T11:53:03.382Z,17.937
2018-05-02T11:54:04.193Z,17.875
2018-05-02T11:55:03.908Z,17.875
2018-05-02T11:56:03.628Z,17.812
2018-05-02T11:57:04.227Z,17.812
2018-05-02T11:58:04.347Z,17.625
2018-05-02T11:59:03.858Z,17.687
2018-05-02T12:00:03.901Z,17.562
2018-05-02T12:01:04.297Z,17.562
2018-05-02T12:02:04.352Z,17.625
2018-05-02T12:03:03.723Z,17.75
2018-05-02T12:04:03.607Z,17.625
2018-05-02T12:05:04.554Z,17.375
2018-05-02T12:06:04.271Z,16.937
2018-05-02T12:07:04.424Z,16.812
2018-05-02T12:08:05.229Z,16.812
2018-05-02T12:09:05.011Z,16.625
2018-05-02T12:10:03.361Z,16.5
2018-05-02T12:11:04.115Z,16.5
2018-05-02T12:12:03.820Z,16.437
2018-05-02T12:13:03.907Z,16.5
2018-05-02T12:14:04.319Z,16.562
2018-05-02T12:15:04.057Z,16.5
2018-05-02T12:16:03.883Z,16.437
2018-05-02T12:17:03.579Z,16.375
2018-05-02T12:18:04.323Z,16.187
2018-05-02T12:19:04.119Z,16.062
2018-05-02T12:20:04.664Z,16.125
2018-05-02T12:21:04.261Z,16.062
2018-05-02T12:22:03.963Z,16.062
2018-05-02T12:23:03.768Z,15.937
2018-05-02T12:24:03.541Z,15.937
2018-05-02T12:25:03.430Z,16
2018-05-02T12:26:04.063Z,16.062
2018-05-02T12:27:03.745Z,15.812
2018-05-02T12:28:03.623Z,15.875
2018-05-02T12:29:04.285Z,15.937
2018-05-02T12:30:04.222Z,16.062
2018-05-02T12:31:04.930Z,16.062
2018-05-02T12:32:03.944Z,16.125
2018-05-02T12:33:03.795Z,16.187
2018-05-02T12:34:04.300Z,16.187
2018-05-02T12:35:03.846Z,16.187
2018-05-02T12:36:03.543Z,16.062
2018-05-02T12:37:03.799Z,16
2018-05-02T12:38:03.491Z,15.875
2018-05-02T12:39:04.614Z,15.812
2018-05-02T12:40:04.616Z,15.875
2018-05-02T12:41:04.529Z,15.937
2018-05-02T12:42:04.037Z,15.937
2018-05-02T12:43:03.912Z,16.062